Bayside, NY

5:22 AM EDT on August 21, 2014 (GMT -0400)
Central Park | Change Station
CLOSE
Current Station
Airport
Location: Central Park,
Elevation: 154 ft
Nearby Weather Stations

Elev 154 ft 40.78 °N, 73.97 °W | Updated 31 minutes ago

Light Rain
Light Rain
69 °F
Feels Like 69 °F
N
0
Wind Variable Wind from North

Today
High -- | Low -- °F
--% Chance of Precip.
Yesterday
High -- | Low -- °F
Precip. -- in
6:11 AM 7:44 PM
Waning Crescent, 15% visible
Pressure 30.03 in
Visibility 6.0 miles
Clouds Few 4400 ft
Overcast 6000 ft
Dew Point 62 °F
Humidity 78%
Rainfall 0.01 in
Snow Depth Not available.
UV 0 out of 12
Pollen 9.70 out of 12
Air Quality Not available.
Flu Activity Not available.
METAR KNYC 210851Z AUTO 00000KT 6SM -RA FEW044 OVC060 21/17 A3006 RMK AO2 RAB02E11B42 SLP169 P0001 60001 T02060167 55002

More Conditions Fewer Conditions

Pressure 30.03 in
Visibility 6.0 miles
Clouds Few 4400 ft
Overcast 6000 ft
Dew Point 62 °F
Humidity 78%
Rainfall 0.01 in
Snow Depth Not available.
UV 0 out of 12
Pollen 9.70 out of 12
Air Quality Not available.
Flu Activity Not available.
METAR KNYC 210851Z AUTO 00000KT 6SM -RA FEW044 OVC060 21/17 A3006 RMK AO2 RAB02E11B42 SLP169 P0001 60001 T02060167 55002

More Conditions Fewer Conditions

10-Day Weather Forecast

Almanac

Astronomy

Aug. 21, 2014 Rise Set
Actual Time 6:11 AM EDT 7:44 PM EDT
Civil Twilight 5:42 AM EDT 8:13 PM EDT
Nautical Twilight 5:07 AM EDT 8:48 PM EDT
Astronomical Twilight 4:30 AM EDT 9:25 PM EDT
Moon 2:38 AM EDT 5:12 PM EDT
Length of Visible Light 14h 31m
Length of Day
13h 33m
Tomorrow will be 2m 30s shorter.
Waning Crescent, 15% of the Moon is Illuminated
Today
Waning Crescent
Aug 25
New
Sep 2
First Quarter
Sep 8
Full
Sep 15
Last Quarter

Today's Extremes

State Highs State Lows

Community

WunderPhotos

Upload Photos

1,745,867 photos uploaded!

Nearby

Snow Depth

Station Depth Elevation
No new snow has been reported.

Earthquake Activity

City Distance Mag. Time & Date
No recent earthquake activity has been reported nearby.
Minimum magnitude displayed is 2.5.

Coastal Water Temperatures

Place Temperature
Bridgeport, CT 73.9 °F

Nearby Weather Stations